Alton, OH (43119)

10:57 AM EDT on October 01, 2014 (GMT -0400)
Galloway Ridge | Change Station
CLOSE
Current Station
Personal Weather Station
Location: Galloway, OH
Elevation: 928 ft
Nearby Weather Stations
Active Advisory: Dense Fog Advisory

Elev 928 ft 39.96 °N, 83.16 °W | Updated 2 seconds ago

Fog
Fog
61.6 °F
Feels Like 61.6 °F
N
0.4
Wind Variable Wind from NW
Gusts 0.7 mph

Today
High -- | Low -- °F
--% Chance of Precip.
Yesterday
High -- | Low -- °F
Precip. -- in
7:29 AM 7:15 PM
Waxing Crescent, 48% visible
Pressure 29.94 in
Visibility 2.5 miles
Clouds Few 1400 ft
Scattered Clouds 4200 ft
Mostly Cloudy 6000 ft
Dew Point 56 °F
Humidity 82%
Rainfall 0.00 in
Snow Depth Not available.
UV 2 out of 12
Pollen 2.10 out of 12
Ozone Good
PM2.5 Good
Flu Activity Not available.
METAR KOSU 301453Z 28005KT 2 1/2SM TSRA FEW014 SCT042 BKN060 17/14 A2994 RMK AO2 LTG DSNT S RAB51 TSB51 SLP136 TS OVHD OCNL LTG ALQD P0003 60005 T01670139 53004

More Conditions Fewer Conditions

Pressure 29.94 in
Visibility 2.5 miles
Clouds Few 1400 ft
Scattered Clouds 4200 ft
Mostly Cloudy 6000 ft
Dew Point 56 °F
Humidity 82%
Rainfall 0.00 in
Snow Depth Not available.
UV 2 out of 12
Pollen 2.10 out of 12
Ozone Good
PM2.5 Good
Flu Activity Not available.
METAR KOSU 301453Z 28005KT 2 1/2SM TSRA FEW014 SCT042 BKN060 17/14 A2994 RMK AO2 LTG DSNT S RAB51 TSB51 SLP136 TS OVHD OCNL LTG ALQD P0003 60005 T01670139 53004

More Conditions Fewer Conditions

10-Day Weather Forecast

Almanac

Astronomy

Oct. 01, 2014 Rise Set
Actual Time 7:29 AM EDT 7:15 PM EDT
Civil Twilight 7:02 AM EDT 7:42 PM EDT
Nautical Twilight 6:30 AM EDT 8:13 PM EDT
Astronomical Twilight 5:58 AM EDT 8:44 PM EDT
Moon 2:28 PM EDT No Moon Set
Length of Visible Light 12h 40m
Length of Day
11h 46m
Tomorrow will be 2m 35s shorter.
Waxing Crescent, 48% of the Moon is Illuminated
Today
Waxing Crescent
Oct 1
First Quarter
Oct 8
Full
Oct 15
Last Quarter
Oct 23
New

Today's Extremes

State Highs State Lows

Community

WunderPhotos

Upload Photos

1,757,960 photos uploaded!

Nearby

Air Quality

  Air Quality AQ Index Pollutant
Yesterday Good
PM2.5
Yesterday Good
OZONE
Current Good
PM2.5
Current Good
OZONE
Wednesday Moderate
PM2.5
Wednesday Moderate
OZONE
Thursday Moderate
PM2.5
Thursday Moderate
OZONE
Friday Good
PM2.5
Friday Good
OZONE
Saturday Good
OZONE
Saturday Good
PM2.5
Sunday Good
OZONE
Sunday Good
PM2.5

Snow Depth

Station Depth Elevation
No new snow has been reported.

Earthquake Activity

City Distance Mag. Time & Date
No recent earthquake activity has been reported nearby.
Minimum magnitude displayed is 2.5.

Coastal Water Temperatures

Place Temperature
No Stations Reporting

Nearby Weather Stations